createdAt,value
2022-10-04T00:01:01.998Z,11.20
2022-10-04T00:06:05.778Z,11.25
2022-10-04T00:11:19.120Z,11.31
2022-10-04T00:16:33.056Z,11.33
2022-10-04T00:21:53.453Z,11.24
2022-10-04T00:27:10.039Z,11.07
2022-10-04T00:32:11.518Z,11.28
2022-10-04T00:37:18.586Z,11.37
2022-10-04T00:42:32.688Z,11.17
2022-10-04T00:47:59.107Z,11.34
2022-10-04T00:53:12.277Z,11.39
2022-10-04T00:58:22.883Z,11.28
2022-10-04T01:03:30.997Z,11.32
2022-10-04T01:08:38.375Z,11.37
2022-10-04T01:13:42.768Z,11.38
2022-10-04T01:18:44.482Z,11.39
2022-10-04T01:24:05.990Z,11.39
2022-10-04T01:29:15.877Z,11.16
2022-10-04T01:34:23.435Z,11.09
2022-10-04T01:39:27.283Z,11.15
2022-10-04T01:44:40.979Z,11.19
2022-10-04T01:49:45.180Z,11.10
2022-10-04T01:54:52.768Z,11.33
2022-10-04T02:00:03.401Z,11.29
2022-10-04T02:05:10.631Z,11.31
2022-10-04T02:10:18.842Z,11.13
2022-10-04T02:15:28.211Z,10.96
2022-10-04T02:20:29.889Z,10.83
2022-10-04T02:25:31.680Z,10.82
2022-10-04T02:30:38.811Z,10.95
2022-10-04T02:35:46.288Z,10.92
2022-10-04T02:40:57.632Z,10.77
2022-10-04T02:46:13.699Z,10.56
2022-10-04T02:51:19.501Z,10.56
2022-10-04T02:56:22.844Z,10.58
2022-10-04T03:01:37.567Z,10.59
2022-10-04T03:06:39.553Z,10.63
2022-10-04T03:11:42.532Z,10.39
2022-10-04T03:16:47.595Z,10.41
2022-10-04T03:21:53.036Z,10.44
2022-10-04T03:26:57.096Z,10.40
2022-10-04T03:32:02.726Z,10.32
2022-10-04T03:37:08.292Z,10.27
2022-10-04T03:42:23.001Z,10.16
2022-10-04T03:47:30.748Z,10.08
2022-10-04T03:52:34.917Z,9.91
2022-10-04T03:57:37.212Z,10.15
2022-10-04T04:03:01.995Z,10.04
2022-10-04T04:08:20.006Z,10.12
2022-10-04T04:13:37.112Z,10.10
2022-10-04T04:18:43.698Z,9.99
2022-10-04T04:23:50.864Z,9.82
2022-10-04T04:29:03.679Z,9.85
2022-10-04T04:34:23.118Z,9.88
2022-10-04T04:39:45.230Z,9.90
2022-10-04T04:44:52.215Z,9.70
2022-10-04T04:49:56.347Z,9.68
2022-10-04T04:54:58.133Z,9.75
2022-10-04T05:00:01.761Z,9.73
2022-10-04T05:05:20.856Z,9.80
2022-10-04T05:10:32.787Z,9.66
2022-10-04T05:15:37.096Z,9.55
2022-10-04T05:20:39.008Z,9.50
2022-10-04T05:25:40.695Z,9.52
2022-10-04T05:30:49.946Z,9.54
2022-10-04T05:36:20.247Z,9.49
2022-10-04T05:41:33.362Z,9.58
2022-10-04T05:46:35.558Z,9.38
2022-10-04T05:51:50.228Z,9.42
2022-10-04T05:57:22.411Z,9.44
2022-10-04T06:02:47.680Z,9.34
2022-10-04T06:07:59.372Z,9.36
2022-10-04T06:13:16.058Z,9.45
2022-10-04T06:19:13.371Z,9.44
2022-10-04T06:24:22.893Z,9.60
2022-10-04T06:29:38.760Z,9.59
2022-10-04T06:35:15.871Z,9.73
2022-10-04T06:41:04.402Z,9.63
2022-10-04T06:46:15.451Z,9.71
2022-10-04T06:51:42.049Z,9.69
2022-10-04T06:56:49.806Z,9.67
2022-10-04T07:02:05.748Z,9.74
2022-10-04T07:07:49.872Z,9.81
2022-10-04T07:13:03.653Z,9.95
2022-10-04T07:18:13.805Z,9.97
2022-10-04T07:23:27.519Z,10.07
2022-10-04T07:28:53.456Z,10.29
2022-10-04T07:34:15.747Z,11.05
2022-10-04T07:39:40.447Z,11.21
2022-10-04T07:44:46.724Z,11.56
2022-10-04T07:49:53.815Z,11.63
2022-10-04T07:55:21.548Z,12.34
2022-10-04T08:00:30.345Z,13.16
2022-10-04T08:05:41.515Z,13.96
2022-10-04T08:11:17.283Z,13.47
2022-10-04T08:16:44.189Z,13.15
2022-10-04T08:21:57.950Z,12.30
2022-10-04T08:27:33.048Z,12.72
2022-10-04T08:32:54.793Z,13.46
2022-10-04T08:38:28.292Z,13.87
2022-10-04T08:44:11.488Z,13.81
2022-10-04T08:49:35.359Z,14.00
2022-10-04T08:55:01.353Z,14.83
2022-10-04T09:00:48.959Z,14.79
2022-10-04T09:06:08.556Z,15.14
2022-10-04T09:11:22.115Z,15.79
2022-10-04T09:16:50.788Z,15.46
2022-10-04T09:21:58.701Z,15.26
2022-10-04T09:27:53.185Z,15.09
2022-10-04T09:33:04.447Z,15.52
2022-10-04T09:38:43.475Z,16.09
2022-10-04T09:44:03.261Z,16.32
2022-10-04T09:49:07.805Z,16.53
2022-10-04T09:54:42.331Z,16.35
2022-10-04T09:59:53.211Z,17.01
2022-10-04T10:12:53.720Z,17.69
2022-10-04T10:18:04.309Z,17.04
2022-10-04T10:23:47.459Z,17.77
2022-10-04T10:29:23.242Z,17.00
2022-10-04T10:34:59.629Z,17.34
2022-10-04T10:40:29.329Z,18.09
2022-10-04T10:52:34.182Z,18.05
2022-10-04T10:58:00.035Z,17.30
2022-10-04T11:03:15.773Z,18.42
2022-10-04T11:08:51.042Z,17.99
2022-10-04T11:14:47.129Z,18.31
2022-10-04T11:20:11.174Z,18.24
2022-10-04T11:26:06.216Z,18.45
2022-10-04T11:31:32.260Z,17.95
2022-10-04T11:36:36.540Z,17.68
2022-10-04T11:41:48.210Z,17.95
2022-10-04T11:47:09.934Z,18.00
2022-10-04T11:52:40.088Z,18.61
2022-10-04T11:57:52.440Z,18.06
2022-10-04T12:03:17.911Z,17.72
2022-10-04T12:08:26.634Z,17.76
2022-10-04T12:13:52.945Z,18.29
2022-10-04T12:25:56.604Z,18.10
2022-10-04T12:31:32.826Z,17.90
2022-10-04T12:37:04.304Z,18.21
2022-10-04T12:42:29.269Z,18.14
2022-10-04T12:47:44.687Z,18.36
2022-10-04T12:52:52.043Z,18.18
2022-10-04T12:58:04.484Z,17.85
2022-10-04T13:03:34.424Z,18.36
2022-10-04T13:08:57.645Z,18.36
2022-10-04T13:14:24.011Z,18.07
2022-10-04T13:19:56.083Z,18.15
2022-10-04T13:25:15.373Z,18.14
2022-10-04T13:30:27.803Z,17.27
2022-10-04T13:35:46.668Z,17.41
2022-10-04T13:47:56.869Z,18.52
2022-10-04T14:00:33.176Z,18.51
2022-10-04T14:05:55.992Z,18.22
2022-10-04T14:11:16.747Z,18.22
2022-10-04T14:16:54.764Z,18.02
2022-10-04T14:22:05.845Z,18.04
2022-10-04T14:27:44.972Z,18.23
2022-10-04T14:32:55.766Z,18.32
2022-10-04T14:38:36.014Z,18.21
2022-10-04T14:43:49.127Z,18.24
2022-10-04T14:56:26.806Z,17.94
2022-10-04T15:01:29.050Z,17.58
2022-10-04T15:06:49.385Z,17.42
2022-10-04T15:17:38.252Z,17.23
2022-10-04T15:23:51.279Z,17.26
2022-10-04T15:29:58.363Z,17.09
2022-10-04T15:35:11.838Z,17.11
2022-10-04T15:40:34.601Z,16.89
2022-10-04T15:46:03.508Z,16.99
2022-10-04T15:51:17.359Z,17.15
2022-10-04T15:56:42.724Z,16.83
2022-10-04T16:01:55.207Z,16.86
2022-10-04T16:07:30.437Z,16.79
2022-10-04T16:13:14.399Z,16.70
2022-10-04T16:18:46.851Z,16.68
2022-10-04T16:24:09.372Z,16.46
2022-10-04T16:29:18.345Z,16.50
2022-10-04T16:34:35.050Z,16.39
2022-10-04T16:40:05.808Z,16.29
2022-10-04T16:45:07.341Z,16.07
2022-10-04T16:50:54.163Z,16.06
2022-10-04T16:55:57.643Z,15.70
2022-10-04T17:01:24.115Z,15.58
2022-10-04T17:06:33.260Z,15.48
2022-10-04T17:11:43.074Z,15.65
2022-10-04T17:17:00.990Z,15.11
2022-10-04T17:22:20.931Z,14.99
2022-10-04T17:27:27.227Z,14.96
2022-10-04T17:32:50.668Z,14.80
2022-10-04T17:38:09.230Z,14.69
2022-10-04T17:43:34.035Z,14.55
2022-10-04T17:49:04.708Z,14.46
2022-10-04T17:54:36.989Z,14.32
2022-10-04T18:00:31.536Z,14.58
2022-10-04T18:05:46.422Z,14.54
2022-10-04T18:10:52.313Z,14.32
2022-10-04T18:16:18.647Z,14.21
2022-10-04T18:21:29.374Z,14.22
2022-10-04T18:33:50.126Z,14.32
2022-10-04T18:39:11.399Z,14.35
2022-10-04T18:44:15.545Z,14.20
2022-10-04T18:49:26.973Z,14.11
2022-10-04T18:54:37.463Z,14.20
2022-10-04T19:00:13.643Z,14.06
2022-10-04T19:05:26.630Z,14.01
2022-10-04T19:10:31.139Z,13.80
2022-10-04T19:16:25.296Z,13.89
2022-10-04T19:21:39.410Z,13.64
2022-10-04T19:26:44.876Z,13.67
2022-10-04T19:31:59.629Z,13.72
2022-10-04T19:37:27.085Z,13.70
2022-10-04T19:42:52.824Z,13.49
2022-10-04T19:47:59.602Z,13.37
2022-10-04T19:53:20.086Z,13.33
2022-10-04T19:58:39.830Z,13.37
2022-10-04T20:03:41.343Z,13.29
2022-10-04T20:09:02.763Z,13.34
2022-10-04T20:14:23.617Z,13.53
2022-10-04T20:19:28.495Z,13.50
2022-10-04T20:24:36.104Z,13.58
2022-10-04T20:29:37.519Z,13.72
2022-10-04T20:34:51.296Z,13.78
2022-10-04T20:39:56.609Z,13.92
2022-10-04T20:45:01.382Z,14.00
2022-10-04T20:50:06.908Z,14.07
2022-10-04T20:55:27.451Z,14.10
2022-10-04T21:00:56.661Z,14.15
2022-10-04T21:06:02.423Z,14.24
2022-10-04T21:11:19.798Z,14.35
2022-10-04T21:16:34.179Z,14.19
2022-10-04T21:21:51.666Z,14.25
2022-10-04T21:26:57.015Z,14.40
2022-10-04T21:32:01.322Z,14.44
2022-10-04T21:37:02.883Z,14.41
2022-10-04T21:42:04.902Z,14.35
2022-10-04T21:47:06.778Z,14.47
2022-10-04T21:52:08.350Z,14.45
2022-10-04T21:57:10.292Z,14.64
2022-10-04T22:02:13.903Z,14.62
2022-10-04T22:07:48.415Z,14.91
2022-10-04T22:12:50.127Z,14.89
2022-10-04T22:17:51.774Z,14.91
2022-10-04T22:22:55.674Z,14.79
2022-10-04T22:27:57.187Z,14.92
2022-10-04T22:33:01.475Z,14.78
2022-10-04T22:38:05.818Z,14.88
2022-10-04T22:43:59.483Z,14.80
2022-10-04T22:49:00.968Z,14.84
2022-10-04T22:54:16.473Z,14.82
2022-10-04T22:59:19.803Z,14.89
2022-10-04T23:04:25.657Z,14.82
2022-10-04T23:09:27.439Z,14.81
2022-10-04T23:14:29.049Z,14.75
2022-10-04T23:19:33.290Z,14.71
2022-10-04T23:24:35.058Z,14.71
2022-10-04T23:29:38.548Z,14.68
2022-10-04T23:34:44.266Z,14.75
2022-10-04T23:39:48.257Z,14.88
2022-10-04T23:44:51.510Z,14.93
2022-10-04T23:49:53.714Z,15.07
2022-10-04T23:54:55.683Z,14.64
